createdAt,value
2019-03-16T09:22:30.357Z,192
2019-03-16T09:22:32.765Z,189
2019-03-16T09:22:35.365Z,186
2019-03-16T09:22:37.762Z,184
2019-03-16T09:22:40.090Z,183
2019-03-16T09:22:42.459Z,184
2019-03-16T09:22:44.842Z,184
2019-03-16T09:22:49.849Z,182
2019-03-16T09:22:52.185Z,182
2019-03-16T09:22:54.505Z,180
2019-03-16T09:22:57.997Z,186
2019-03-16T09:23:01.497Z,182
2019-03-16T09:23:05.879Z,184
2019-03-16T09:23:08.475Z,184
2019-03-16T09:23:10.852Z,185
2019-03-16T09:23:13.218Z,180
2019-03-16T09:23:15.642Z,179
2019-03-16T09:23:17.991Z,206
2019-03-16T09:23:20.387Z,166
2019-03-16T09:23:22.754Z,168
2019-03-16T09:23:25.096Z,166
2019-03-16T09:23:27.513Z,135
2019-03-16T09:23:29.855Z,112
2019-03-16T09:23:32.193Z,161
2019-03-16T09:23:34.553Z,171
2019-03-16T09:23:36.926Z,153
2019-03-16T09:23:39.304Z,160
2019-03-16T09:23:41.647Z,148
2019-03-16T09:23:44.036Z,159
2019-03-16T09:23:46.442Z,142
2019-03-16T09:23:48.808Z,159
2019-03-16T09:23:51.175Z,159
2019-03-16T09:23:53.550Z,123
2019-03-16T09:23:56.039Z,144
2019-03-16T09:23:58.348Z,145
2019-03-16T09:24:00.725Z,145
2019-03-16T09:24:03.117Z,146
2019-03-16T09:24:05.559Z,144
2019-03-16T09:24:07.914Z,145
2019-03-16T09:24:10.318Z,145
2019-03-16T09:24:12.676Z,146
2019-03-16T09:24:15.066Z,145
2019-03-16T09:24:17.441Z,144
2019-03-16T09:24:19.800Z,147
2019-03-16T09:24:22.156Z,144
2019-03-16T09:24:24.541Z,142
2019-03-16T09:24:27.865Z,142
2019-03-16T09:24:30.277Z,145
2019-03-16T09:24:32.722Z,142
2019-03-16T09:24:35.159Z,144
2019-03-16T09:24:37.745Z,142
2019-03-16T09:24:40.123Z,143
2019-03-16T09:24:42.596Z,143
2019-03-16T09:24:44.965Z,142
2019-03-16T09:24:47.304Z,138
2019-03-16T09:24:49.660Z,146
2019-03-16T09:24:52.126Z,144
2019-03-16T09:24:54.559Z,145
2019-03-16T09:24:56.912Z,147
2019-03-16T09:24:59.292Z,142
2019-03-16T09:25:01.686Z,137
2019-03-16T09:25:05.242Z,142
2019-03-16T09:25:07.652Z,157
2019-03-16T09:25:10.975Z,169
2019-03-16T09:25:13.345Z,155
2019-03-16T09:25:15.847Z,164
2019-03-16T09:25:18.195Z,165
2019-03-16T09:25:20.601Z,162
2019-03-16T09:25:22.955Z,154
2019-03-16T09:25:25.350Z,150
2019-03-16T09:25:27.728Z,171
2019-03-16T09:25:30.079Z,130
2019-03-16T09:25:32.406Z,150
2019-03-16T09:25:34.783Z,162
2019-03-16T09:25:37.183Z,162
2019-03-16T09:25:39.621Z,154
2019-03-16T09:25:42.066Z,155
2019-03-16T09:25:44.516Z,154
2019-03-16T09:25:46.886Z,154
2019-03-16T09:25:49.286Z,139
2019-03-16T09:25:51.674Z,157
2019-03-16T09:25:54.070Z,157
2019-03-16T09:25:56.446Z,156
2019-03-16T09:25:58.836Z,152
2019-03-16T09:26:01.275Z,153
2019-03-16T09:26:03.615Z,157
2019-03-16T09:26:05.956Z,149
2019-03-16T09:26:08.341Z,157
2019-03-16T09:26:10.763Z,159
2019-03-16T09:26:13.159Z,161
2019-03-16T09:26:15.515Z,154
2019-03-16T09:26:17.881Z,164
2019-03-16T09:26:20.278Z,167
2019-03-16T09:26:22.762Z,147
2019-03-16T09:26:25.091Z,168
2019-03-16T09:26:27.464Z,167
2019-03-16T09:26:29.823Z,166
2019-03-16T09:26:32.209Z,166
2019-03-16T09:26:34.625Z,163
2019-03-16T09:26:37.016Z,158
2019-03-16T09:26:39.363Z,156
2019-03-16T09:26:41.750Z,159
2019-03-16T09:26:44.112Z,158
2019-03-16T09:26:46.469Z,153
2019-03-16T09:26:48.856Z,157
2019-03-16T09:26:51.275Z,156
2019-03-16T09:26:53.656Z,152
2019-03-16T09:26:56.030Z,152
2019-03-16T09:26:58.394Z,149
2019-03-16T09:27:00.764Z,146
2019-03-16T09:27:03.158Z,148
2019-03-16T09:27:05.519Z,151
2019-03-16T09:27:31.297Z,140
2019-03-16T09:27:33.395Z,141
2019-03-16T09:27:35.742Z,139
2019-03-16T09:27:38.135Z,139
2019-03-16T09:27:40.521Z,137
2019-03-16T09:27:42.889Z,141
2019-03-16T09:27:45.215Z,140
2019-03-16T09:27:47.601Z,142
2019-03-16T09:27:49.975Z,141
2019-03-16T09:27:52.353Z,130
2019-03-16T09:27:55.742Z,141
2019-03-16T09:27:58.117Z,138
2019-03-16T09:28:00.496Z,141
2019-03-16T09:28:02.933Z,143
2019-03-16T09:28:09.511Z,145
2019-03-16T09:28:18.362Z,142
2019-03-16T09:28:18.363Z,144
2019-03-16T09:28:19.115Z,141
2019-03-16T09:28:21.652Z,140
2019-03-16T09:28:24.012Z,140
2019-03-16T09:28:26.390Z,142
2019-03-16T09:28:28.963Z,143
2019-03-16T09:28:31.841Z,145
2019-03-16T09:28:34.182Z,144
2019-03-16T09:28:36.536Z,144
2019-03-16T09:28:38.895Z,145
2019-03-16T09:28:41.219Z,145
2019-03-16T09:28:43.583Z,142
2019-03-16T09:28:45.947Z,143
2019-03-16T09:28:59.522Z,126
2019-03-16T09:28:59.794Z,120
2019-03-16T09:29:00.149Z,122
2019-03-16T09:29:10.261Z,125
2019-03-16T09:29:14.651Z,146
2019-03-16T09:29:14.652Z,131
2019-03-16T09:29:15.409Z,149
2019-03-16T09:29:17.711Z,140
2019-03-16T09:29:20.090Z,150
2019-03-16T09:29:22.469Z,130
2019-03-16T09:29:25.855Z,117
2019-03-16T09:29:28.325Z,91
2019-03-16T09:29:30.666Z,126
2019-03-16T09:29:33.061Z,125
2019-03-16T09:29:35.405Z,130
2019-03-16T09:29:38.074Z,134
2019-03-16T09:29:41.329Z,133
2019-03-16T09:29:43.682Z,135
2019-03-16T09:29:46.992Z,133
2019-03-16T09:29:49.369Z,135
2019-03-16T09:29:51.706Z,137
2019-03-16T09:29:54.083Z,136
2019-03-16T09:29:56.437Z,135
2019-03-16T09:29:58.796Z,142
2019-03-16T09:30:01.125Z,142
2019-03-16T09:30:03.507Z,139
2019-03-16T09:30:05.843Z,136
2019-03-16T09:30:08.191Z,134
2019-03-16T09:30:10.536Z,131
2019-03-16T09:30:12.923Z,136
2019-03-16T09:30:16.385Z,136
2019-03-16T09:30:18.748Z,137
2019-03-16T09:30:21.102Z,129
2019-03-16T09:30:23.458Z,126
2019-03-16T09:30:25.830Z,134
2019-03-16T09:30:28.182Z,136
2019-03-16T09:30:30.525Z,133
2019-03-16T09:30:32.861Z,133
2019-03-16T09:30:35.239Z,133
2019-03-16T09:30:37.601Z,131
2019-03-16T09:30:39.946Z,130
2019-03-16T09:30:42.393Z,133
2019-03-16T09:30:44.769Z,129
2019-03-16T09:30:47.105Z,131
2019-03-16T09:30:49.472Z,130
2019-03-16T09:30:51.909Z,134
2019-03-16T09:30:56.365Z,134
2019-03-16T09:30:57.545Z,135
2019-03-16T09:30:59.923Z,134
2019-03-16T09:31:02.287Z,134
2019-03-16T09:31:04.650Z,134
2019-03-16T09:31:06.979Z,137
2019-03-16T09:31:09.391Z,135
2019-03-16T09:31:11.714Z,140
2019-03-16T09:31:14.070Z,140
2019-03-16T09:31:16.433Z,76
2019-03-16T09:31:18.852Z,149
2019-03-16T09:31:21.252Z,133
2019-03-16T09:31:23.634Z,85
2019-03-16T09:31:25.996Z,49
2019-03-16T09:31:28.411Z,32
2019-03-16T09:31:30.744Z,130
2019-03-16T09:31:33.161Z,532
2019-03-16T09:31:36.512Z,804
2019-03-16T09:31:38.871Z,636
2019-03-16T09:31:41.251Z,936
2019-03-16T09:31:43.595Z,964
2019-03-16T09:31:45.979Z,997
2019-03-16T09:32:07.206Z,999
2019-03-16T09:32:09.533Z,986
2019-03-16T09:32:11.895Z,966
2019-03-16T09:32:14.282Z,935
2019-03-16T09:32:16.936Z,912
2019-03-16T09:32:19.340Z,659
2019-03-16T09:32:21.719Z,591
2019-03-16T09:32:24.097Z,913
2019-03-16T09:32:26.467Z,923
2019-03-16T09:32:28.825Z,928
2019-03-16T09:32:31.187Z,929
2019-03-16T09:32:33.629Z,943
2019-03-16T09:32:36.013Z,961
2019-03-16T09:32:38.382Z,975
2019-03-16T09:32:40.743Z,986
2019-03-16T09:32:43.097Z,982
2019-03-16T09:32:45.468Z,974
2019-03-16T09:32:47.799Z,960
2019-03-16T09:32:50.182Z,948
2019-03-16T09:32:52.519Z,940
2019-03-16T09:32:55.905Z,940
2019-03-16T09:32:58.289Z,949
2019-03-16T09:33:00.651Z,967
2019-03-16T09:33:02.986Z,993
2019-03-16T09:33:05.347Z,709
2019-03-16T09:33:07.681Z,558
2019-03-16T09:33:10.124Z,1080
2019-03-16T09:33:12.496Z,1098
2019-03-16T09:33:14.906Z,1121
2019-03-16T09:33:17.352Z,1109
2019-03-16T09:33:19.705Z,1113
2019-03-16T09:33:22.229Z,1152
2019-03-16T09:33:24.471Z,433
2019-03-16T09:33:26.868Z,1060
2019-03-16T09:33:29.169Z,1078
2019-03-16T09:33:31.533Z,1156
2019-03-16T09:33:33.903Z,830
2019-03-16T09:33:36.262Z,1017
2019-03-16T09:33:38.647Z,852
2019-03-16T09:33:41.036Z,1019
2019-03-16T09:33:43.436Z,898
2019-03-16T09:33:45.846Z,851
2019-03-16T09:33:48.226Z,868
2019-03-16T09:33:50.582Z,780
2019-03-16T09:33:52.952Z,888
2019-03-16T09:33:55.320Z,904
2019-03-16T09:33:57.718Z,915
2019-03-16T09:34:01.062Z,930
2019-03-16T09:34:03.546Z,942
2019-03-16T09:34:05.912Z,956
2019-03-16T09:34:08.274Z,1062
2019-03-16T09:34:10.637Z,756
2019-03-16T09:34:13.073Z,780
2019-03-16T09:34:15.492Z,880
2019-03-16T09:34:18.826Z,866
2019-03-16T09:34:21.173Z,857
2019-03-16T09:34:23.561Z,844
2019-03-16T09:34:25.896Z,829
2019-03-16T09:34:28.253Z,697
2019-03-16T09:34:30.646Z,701
2019-03-16T09:34:32.976Z,623
2019-03-16T09:34:35.370Z,635
2019-03-16T09:34:37.754Z,604
2019-03-16T09:34:40.663Z,597
2019-03-16T09:34:43.076Z,647
2019-03-16T09:34:45.403Z,716
2019-03-16T09:34:47.769Z,663
2019-03-16T09:34:50.381Z,655
2019-03-16T09:34:52.745Z,669
2019-03-16T09:34:55.114Z,663
2019-03-16T09:34:57.486Z,596
2019-03-16T09:34:59.866Z,923
2019-03-16T09:35:02.218Z,935
2019-03-16T09:35:04.568Z,922
2019-03-16T09:35:06.964Z,961
2019-03-16T09:35:09.315Z,962
2019-03-16T09:35:11.704Z,970
2019-03-16T09:35:14.111Z,965
2019-03-16T09:35:16.484Z,962
2019-03-16T09:35:41.040Z,886
2019-03-16T09:35:43.400Z,844
2019-03-16T09:35:45.726Z,822
2019-03-16T09:35:48.134Z,825
2019-03-16T09:35:50.477Z,834
2019-03-16T09:35:52.858Z,838
2019-03-16T09:35:55.237Z,841
2019-03-16T09:35:57.629Z,847
2019-03-16T09:36:18.853Z,877
2019-03-16T09:36:21.190Z,887
2019-03-16T09:36:23.532Z,890
2019-03-16T09:36:25.918Z,898
2019-03-16T09:36:28.283Z,896
2019-03-16T09:36:30.645Z,899
2019-03-16T09:36:33.024Z,895
2019-03-16T09:36:35.366Z,888
2019-03-16T09:36:37.722Z,885
2019-03-16T09:36:40.102Z,894
2019-03-16T09:36:42.461Z,904
2019-03-16T09:36:44.812Z,916
2019-03-16T09:36:47.175Z,935
2019-03-16T09:36:49.540Z,949
2019-03-16T09:36:51.901Z,949
2019-03-16T09:36:54.285Z,943
2019-03-16T09:36:56.654Z,931
2019-03-16T09:36:59.016Z,920
2019-03-16T09:37:01.389Z,919
2019-03-16T09:37:03.776Z,923
2019-03-16T09:37:07.107Z,922
2019-03-16T09:37:09.490Z,927
2019-03-16T09:37:11.858Z,927
2019-03-16T09:37:14.222Z,926
2019-03-16T09:37:16.562Z,933
2019-03-16T09:37:18.965Z,944
2019-03-16T09:37:21.311Z,949
2019-03-16T09:37:23.665Z,964
2019-03-16T09:37:26.024Z,905
2019-03-16T09:37:28.366Z,969
2019-03-16T09:37:30.721Z,978
2019-03-16T09:37:33.082Z,1002
2019-03-16T09:37:36.523Z,1026
2019-03-16T09:37:38.910Z,1038
2019-03-16T09:37:41.331Z,1040
2019-03-16T09:37:43.675Z,1009
2019-03-16T09:37:46.086Z,1031
2019-03-16T09:37:48.415Z,1015
2019-03-16T09:37:50.769Z,999
2019-03-16T09:37:53.173Z,990
2019-03-16T09:37:55.540Z,985
2019-03-16T09:37:57.916Z,993
2019-03-16T09:38:00.246Z,1006
2019-03-16T09:38:05.145Z,1016
2019-03-16T09:38:06.000Z,1035
2019-03-16T09:38:08.433Z,1055
2019-03-16T09:38:10.782Z,1069
2019-03-16T09:38:13.145Z,1088
2019-03-16T09:38:15.505Z,1093
2019-03-16T09:38:17.871Z,1089
2019-03-16T09:38:20.228Z,1068
2019-03-16T09:38:22.595Z,1053
2019-03-16T09:38:24.947Z,1045
2019-03-16T09:38:28.381Z,1045
2019-03-16T09:38:30.772Z,1063
2019-03-16T09:38:33.135Z,1112
2019-03-16T09:38:35.489Z,1160
2019-03-16T09:38:37.841Z,1185
2019-03-16T09:38:40.180Z,1204
2019-03-16T09:38:43.531Z,1220
2019-03-16T09:38:45.916Z,1234
2019-03-16T09:38:48.322Z,1244
2019-03-16T09:38:50.664Z,1253
2019-03-16T09:38:54.044Z,1260
2019-03-16T09:38:56.402Z,1260
2019-03-16T09:38:58.771Z,1256
2019-03-16T09:39:01.140Z,1242
2019-03-16T09:39:03.517Z,1215
2019-03-16T09:39:05.871Z,1186
2019-03-16T09:39:08.243Z,1165
2019-03-16T09:39:10.621Z,1140
2019-03-16T09:39:12.981Z,1119
2019-03-16T09:39:15.335Z,1099
2019-03-16T09:39:17.711Z,1070
2019-03-16T09:39:21.076Z,1049
2019-03-16T09:39:23.441Z,1054
2019-03-16T09:39:25.811Z,1054
2019-03-16T09:39:28.221Z,1040
2019-03-16T09:39:30.640Z,1015
2019-03-16T09:39:32.974Z,980
2019-03-16T09:39:35.376Z,951
2019-03-16T09:39:56.554Z,1033
2019-03-16T09:39:58.943Z,1065
2019-03-16T09:40:01.378Z,1106
2019-03-16T09:40:03.758Z,1122
2019-03-16T09:40:06.122Z,1089
2019-03-16T09:40:08.466Z,1077
2019-03-16T09:40:10.819Z,1098
2019-03-16T09:40:13.175Z,1104
2019-03-16T09:40:15.543Z,1074
2019-03-16T09:40:17.912Z,1061
2019-03-16T09:40:20.323Z,1028
2019-03-16T09:40:22.680Z,1013
2019-03-16T09:40:25.087Z,985
2019-03-16T09:40:27.426Z,962
2019-03-16T09:40:29.819Z,953
2019-03-16T09:40:32.170Z,943
2019-03-16T09:40:34.498Z,928
2019-03-16T09:40:36.890Z,916
2019-03-16T09:40:39.251Z,906
2019-03-16T09:40:41.591Z,889
2019-03-16T09:40:43.965Z,869
2019-03-16T09:40:46.380Z,853
2019-03-16T09:40:48.751Z,839
2019-03-16T09:40:51.142Z,830
2019-03-16T09:40:53.494Z,833
2019-03-16T09:40:55.863Z,834
2019-03-16T09:40:58.210Z,827
2019-03-16T09:41:00.598Z,814
2019-03-16T09:41:02.994Z,795
2019-03-16T09:41:05.372Z,779
2019-03-16T09:41:07.740Z,778
2019-03-16T09:41:10.105Z,782
2019-03-16T09:41:12.511Z,788
2019-03-16T09:41:14.850Z,790
2019-03-16T09:41:17.246Z,782
2019-03-16T09:41:19.634Z,784
2019-03-16T09:41:22.052Z,745
2019-03-16T09:41:24.462Z,759
2019-03-16T09:41:26.826Z,759
2019-03-16T09:41:29.189Z,746
2019-03-16T09:41:31.543Z,728
2019-03-16T09:41:33.967Z,711
2019-03-16T09:41:36.327Z,701
2019-03-16T09:41:38.723Z,694
2019-03-16T09:41:42.058Z,680
2019-03-16T09:41:44.431Z,672
2019-03-16T09:41:46.777Z,679
2019-03-16T09:41:49.128Z,675
2019-03-16T09:41:51.584Z,671
2019-03-16T09:41:53.844Z,674
2019-03-16T09:41:56.223Z,673
2019-03-16T09:41:58.603Z,625
2019-03-16T09:42:00.949Z,623
2019-03-16T09:42:03.301Z,671
2019-03-16T09:42:06.671Z,700
2019-03-16T09:42:09.032Z,739
2019-03-16T09:42:11.406Z,763
2019-03-16T09:42:13.757Z,795
2019-03-16T09:42:16.239Z,807
2019-03-16T09:42:18.510Z,816
2019-03-16T09:42:20.862Z,834
2019-03-16T09:42:23.447Z,871
2019-03-16T09:42:25.810Z,895
2019-03-16T09:42:28.174Z,908
2019-03-16T09:42:30.515Z,909
2019-03-16T09:42:32.898Z,908
2019-03-16T09:42:36.251Z,902
2019-03-16T09:42:38.599Z,888
2019-03-16T09:42:41.036Z,880
2019-03-16T09:42:43.441Z,878
2019-03-16T09:42:46.779Z,878
2019-03-16T09:42:49.143Z,874
2019-03-16T09:42:51.489Z,876
2019-03-16T09:42:53.851Z,885
2019-03-16T09:42:56.225Z,897
2019-03-16T09:42:58.603Z,909
2019-03-16T09:43:00.973Z,915
2019-03-16T09:43:03.316Z,926
2019-03-16T09:43:05.726Z,932
2019-03-16T09:43:08.085Z,930
2019-03-16T09:43:10.474Z,927
2019-03-16T09:43:12.838Z,930
2019-03-16T09:43:15.335Z,926
2019-03-16T09:43:17.672Z,940
2019-03-16T09:43:21.040Z,937
2019-03-16T09:43:23.393Z,919
2019-03-16T09:43:25.812Z,906
2019-03-16T09:43:28.154Z,892
2019-03-16T09:43:30.537Z,883
2019-03-16T09:43:32.910Z,868
2019-03-16T09:43:35.265Z,871
2019-03-16T09:43:37.601Z,871
2019-03-16T09:43:39.944Z,871
2019-03-16T09:43:42.315Z,875
2019-03-16T09:43:44.665Z,874
2019-03-16T09:43:47.011Z,875
2019-03-16T09:43:49.356Z,878
2019-03-16T09:43:51.718Z,894
2019-03-16T09:43:54.120Z,908
2019-03-16T09:43:56.511Z,922
2019-03-16T09:44:01.792Z,944
2019-03-16T09:44:03.277Z,981
2019-03-16T09:44:06.695Z,1034
2019-03-16T09:44:09.173Z,1075
2019-03-16T09:44:11.526Z,1110
2019-03-16T09:44:13.964Z,1144
2019-03-16T09:44:16.332Z,1174
2019-03-16T09:44:18.696Z,1202
2019-03-16T09:44:21.024Z,1221
2019-03-16T09:44:23.397Z,1241
2019-03-16T09:44:25.794Z,1259
2019-03-16T09:44:28.160Z,1272
2019-03-16T09:44:30.514Z,1270
2019-03-16T09:44:32.866Z,1270
2019-03-16T09:44:35.213Z,1270
2019-03-16T09:44:37.597Z,1259
2019-03-16T09:44:39.956Z,1250
2019-03-16T09:44:42.320Z,1258
2019-03-16T09:44:44.701Z,1243
2019-03-16T09:44:47.092Z,1233
2019-03-16T09:44:49.449Z,1220
2019-03-16T09:44:51.774Z,1202
2019-03-16T09:44:54.139Z,1183
2019-03-16T09:44:56.496Z,1175
2019-03-16T09:44:58.838Z,1166
2019-03-16T09:45:01.225Z,1163
2019-03-16T09:45:03.586Z,1167
2019-03-16T09:45:05.934Z,1174
2019-03-16T09:45:08.308Z,1170
2019-03-16T09:45:10.638Z,1172
2019-03-16T09:45:13.058Z,1170
2019-03-16T09:45:15.407Z,1172
2019-03-16T09:45:17.781Z,1179
2019-03-16T09:45:20.127Z,1187
2019-03-16T09:45:22.492Z,1194
2019-03-16T09:45:24.903Z,1202
2019-03-16T09:45:27.244Z,1170
2019-03-16T09:45:29.631Z,1210
2019-03-16T09:45:31.982Z,1215
2019-03-16T09:45:34.333Z,1210
2019-03-16T09:45:36.690Z,1199
2019-03-16T09:45:39.036Z,1188
2019-03-16T09:45:41.448Z,1182
2019-03-16T09:45:43.818Z,1192
2019-03-16T09:45:46.276Z,1206
2019-03-16T09:45:48.605Z,1225
2019-03-16T09:45:50.985Z,1243
2019-03-16T09:45:53.366Z,1257
2019-03-16T09:45:55.743Z,1296
2019-03-16T09:45:58.193Z,1366
2019-03-16T09:46:00.601Z,1472
2019-03-16T09:46:02.966Z,1603
2019-03-16T09:46:05.327Z,1729
2019-03-16T09:46:07.686Z,1843
2019-03-16T09:46:10.042Z,1937
2019-03-16T09:46:12.399Z,2013
2019-03-16T09:46:14.787Z,2092
2019-03-16T09:46:17.216Z,2089
2019-03-16T09:46:19.566Z,2041
2019-03-16T09:46:21.977Z,2040
2019-03-16T09:46:24.350Z,2031
2019-03-16T09:46:26.697Z,2025
2019-03-16T09:46:29.107Z,2012
2019-03-16T09:46:31.473Z,2010
2019-03-16T09:46:34.801Z,1965
2019-03-16T09:46:37.179Z,1912
2019-03-16T09:46:39.547Z,1828
2019-03-16T09:46:41.936Z,1755
2019-03-16T09:46:44.354Z,1713
2019-03-16T09:46:46.815Z,1659
2019-03-16T09:46:49.177Z,1587
2019-03-16T09:46:51.563Z,1572
2019-03-16T09:46:53.901Z,1550
2019-03-16T09:46:56.314Z,1547
2019-03-16T09:46:58.675Z,1546
2019-03-16T09:47:01.059Z,1543
2019-03-16T09:47:03.429Z,1540
2019-03-16T09:47:05.838Z,1521
2019-03-16T09:47:08.210Z,1496
2019-03-16T09:47:10.594Z,1484
2019-03-16T09:47:12.974Z,1495
2019-03-16T09:47:15.326Z,1505
2019-03-16T09:47:17.742Z,1478
2019-03-16T09:47:20.085Z,1490
2019-03-16T09:47:22.459Z,1500
2019-03-16T09:47:24.788Z,1490
2019-03-16T09:47:27.148Z,1454
2019-03-16T09:47:29.481Z,1424
2019-03-16T09:47:31.876Z,1394
2019-03-16T09:47:34.357Z,1377
2019-03-16T09:47:36.801Z,1368
2019-03-16T09:47:39.210Z,1355
2019-03-16T09:47:41.589Z,1329
2019-03-16T09:47:43.949Z,1285
2019-03-16T09:47:46.307Z,1258
2019-03-16T09:47:48.637Z,1234
2019-03-16T09:47:50.987Z,1210
2019-03-16T09:47:54.335Z,1192
2019-03-16T09:47:56.674Z,1202
2019-03-16T09:48:00.055Z,1232
2019-03-16T09:48:02.471Z,1255
2019-03-16T09:48:04.853Z,1263
2019-03-16T09:48:28.356Z,1407
2019-03-16T09:48:30.754Z,1416
2019-03-16T09:48:33.168Z,1431
2019-03-16T09:48:35.510Z,1448
2019-03-16T09:48:37.877Z,1449
2019-03-16T09:48:40.256Z,1438
2019-03-16T09:48:42.612Z,1432
2019-03-16T09:48:44.987Z,1409
2019-03-16T09:48:47.331Z,1406
2019-03-16T09:48:49.699Z,1426
2019-03-16T09:48:52.166Z,1481
2019-03-16T09:48:55.526Z,1531
2019-03-16T09:48:57.903Z,1533
2019-03-16T09:49:00.277Z,1537
2019-03-16T09:49:02.707Z,1530
2019-03-16T09:49:07.676Z,1518
2019-03-16T09:49:10.052Z,1506
2019-03-16T09:49:12.403Z,1589
2019-03-16T09:49:14.776Z,1591
2019-03-16T09:49:17.146Z,1637
2019-03-16T09:49:19.748Z,1670
2019-03-16T09:49:22.152Z,1677
2019-03-16T09:49:24.746Z,1691
2019-03-16T09:49:27.202Z,1690
2019-03-16T09:49:30.686Z,1636
2019-03-16T09:49:33.050Z,1586
2019-03-16T09:49:35.772Z,1552
2019-03-16T09:49:38.322Z,1542
2019-03-16T09:49:40.755Z,1521
2019-03-16T09:49:43.165Z,1502
2019-03-16T09:49:45.728Z,1482
2019-03-16T09:49:48.238Z,1479
2019-03-16T09:49:50.692Z,1471
2019-03-16T09:49:53.062Z,1453
2019-03-16T09:49:55.450Z,1438
2019-03-16T09:49:57.821Z,1398
2019-03-16T09:50:00.485Z,1364
2019-03-16T09:50:02.632Z,1324
2019-03-16T09:50:07.249Z,1310
2019-03-16T09:50:08.467Z,1300
2019-03-16T09:50:10.832Z,1357
2019-03-16T09:50:13.420Z,1417
2019-03-16T09:50:16.091Z,1460
2019-03-16T09:50:18.490Z,1486
2019-03-16T09:50:20.988Z,1498
2019-03-16T09:50:23.326Z,1494
2019-03-16T09:50:25.686Z,1495
2019-03-16T09:50:28.105Z,1509
2019-03-16T09:50:30.663Z,1558
2019-03-16T09:50:33.165Z,1612
2019-03-16T09:50:35.712Z,1665
2019-03-16T09:50:38.237Z,1705
2019-03-16T09:50:40.934Z,1732
2019-03-16T09:50:43.503Z,1742
2019-03-16T09:50:45.913Z,1765
2019-03-16T09:50:48.284Z,1509
2019-03-16T09:50:50.657Z,1788
2019-03-16T09:50:53.032Z,1815
2019-03-16T09:50:56.413Z,1833
2019-03-16T09:50:58.821Z,1821
2019-03-16T09:51:01.205Z,1800
2019-03-16T09:51:03.601Z,1788
2019-03-16T09:51:05.992Z,1779
2019-03-16T09:51:08.378Z,1819
2019-03-16T09:51:10.837Z,1867
2019-03-16T09:51:13.208Z,1933
2019-03-16T09:51:15.684Z,1973
2019-03-16T09:51:19.353Z,2013
2019-03-16T09:51:21.761Z,2041
2019-03-16T09:51:24.137Z,2033
2019-03-16T09:51:26.490Z,2008
2019-03-16T09:51:28.856Z,1973
2019-03-16T09:51:31.245Z,1925
2019-03-16T09:51:33.630Z,1908
2019-03-16T09:51:35.973Z,1894
2019-03-16T09:51:38.327Z,1831
2019-03-16T09:51:40.709Z,1865
2019-03-16T09:51:43.306Z,1853
2019-03-16T09:51:45.666Z,1796
2019-03-16T09:51:49.036Z,1806
2019-03-16T09:51:51.441Z,1770
2019-03-16T09:51:54.896Z,1744
2019-03-16T09:51:57.277Z,1714
2019-03-16T09:51:59.715Z,1705
2019-03-16T09:52:02.105Z,1696
2019-03-16T09:52:04.445Z,1672
2019-03-16T09:52:06.853Z,1632
2019-03-16T09:52:09.189Z,1588
2019-03-16T09:52:11.576Z,1538
2019-03-16T09:52:13.949Z,1497
2019-03-16T09:52:16.311Z,1466
2019-03-16T09:52:18.685Z,1442
2019-03-16T09:52:21.085Z,1359
2019-03-16T09:52:23.464Z,1406
2019-03-16T09:52:25.817Z,1395
2019-03-16T09:52:28.173Z,1378
2019-03-16T09:52:30.604Z,1263
2019-03-16T09:52:32.954Z,1242
2019-03-16T09:52:35.364Z,1362
2019-03-16T09:52:37.716Z,1380
2019-03-16T09:52:40.096Z,1406
2019-03-16T09:52:42.460Z,1439
2019-03-16T09:52:44.812Z,1470
2019-03-16T09:52:47.174Z,1494
2019-03-16T09:52:49.570Z,1513
2019-03-16T09:52:51.932Z,1524
2019-03-16T09:52:54.285Z,1508
2019-03-16T09:52:56.668Z,1407
2019-03-16T09:53:00.024Z,1399
2019-03-16T09:53:02.492Z,1313
2019-03-16T09:53:04.920Z,1385
2019-03-16T09:53:07.317Z,1371
2019-03-16T09:53:09.673Z,1311
2019-03-16T09:53:12.127Z,1278
2019-03-16T09:53:14.493Z,1221
2019-03-16T09:53:16.914Z,1138
2019-03-16T09:53:19.390Z,1162
2019-03-16T09:53:21.790Z,1153
2019-03-16T09:53:24.165Z,1061
2019-03-16T09:53:26.572Z,1124
2019-03-16T09:53:28.916Z,1124
2019-03-16T09:53:31.270Z,1107
2019-03-16T09:53:33.621Z,1138
2019-03-16T09:53:35.965Z,1125
2019-03-16T09:53:38.351Z,1110
2019-03-16T09:53:40.716Z,1114
2019-03-16T09:53:43.086Z,1124
2019-03-16T09:53:45.445Z,1133
2019-03-16T09:53:47.837Z,1150
2019-03-16T09:53:50.213Z,1163
2019-03-16T09:53:52.588Z,1180
2019-03-16T09:53:54.966Z,1189
2019-03-16T09:53:57.325Z,1075
2019-03-16T09:53:59.705Z,1169
2019-03-16T09:54:02.061Z,1168
2019-03-16T09:54:04.616Z,1177
2019-03-16T09:54:06.989Z,1192
2019-03-16T09:54:09.346Z,1213
2019-03-16T09:54:11.779Z,1228
2019-03-16T09:54:14.164Z,1230
2019-03-16T09:54:16.572Z,1115
2019-03-16T09:54:21.918Z,1225
2019-03-16T09:54:24.266Z,1237
2019-03-16T09:54:27.642Z,1242
2019-03-16T09:54:30.087Z,1235
2019-03-16T09:54:32.364Z,1229
2019-03-16T09:54:34.743Z,1229
2019-03-16T09:54:37.127Z,1235
2019-03-16T09:54:39.470Z,1247
2019-03-16T09:54:41.842Z,1261
2019-03-16T09:54:44.252Z,1284
2019-03-16T09:54:46.597Z,1296
2019-03-16T09:54:48.946Z,1301
2019-03-16T09:54:51.331Z,1295
2019-03-16T09:54:53.700Z,1253
2019-03-16T09:54:56.051Z,1283
2019-03-16T09:54:58.446Z,1273
2019-03-16T09:55:19.616Z,1088
2019-03-16T09:55:21.966Z,1083
2019-03-16T09:55:24.346Z,1079
2019-03-16T09:55:26.714Z,1083
2019-03-16T09:55:29.075Z,1081
2019-03-16T09:55:35.014Z,1082
2019-03-16T09:55:36.034Z,1075
2019-03-16T09:55:38.454Z,1072
2019-03-16T09:55:40.784Z,1068
2019-03-16T09:55:43.149Z,1055
2019-03-16T09:55:45.522Z,1037
2019-03-16T09:55:47.927Z,1011
2019-03-16T09:55:50.319Z,988
2019-03-16T09:55:52.665Z,965
2019-03-16T09:55:55.024Z,954
2019-03-16T09:55:57.407Z,944
2019-03-16T09:55:59.813Z,939
2019-03-16T09:56:02.184Z,938
2019-03-16T09:56:04.541Z,938
2019-03-16T09:56:07.882Z,943
2019-03-16T09:56:10.272Z,959
2019-03-16T09:56:12.677Z,979
2019-03-16T09:56:15.045Z,1012
2019-03-16T09:56:17.396Z,1038
2019-03-16T09:56:19.771Z,1059
2019-03-16T09:56:22.121Z,1075
2019-03-16T09:56:24.525Z,1086
2019-03-16T09:56:26.891Z,1094
2019-03-16T09:56:29.261Z,1104
2019-03-16T09:56:31.678Z,1116
2019-03-16T09:56:35.037Z,1124
2019-03-16T09:56:37.416Z,1117
2019-03-16T09:56:39.782Z,1111
2019-03-16T09:56:42.142Z,1097
2019-03-16T09:56:44.549Z,1090
2019-03-16T09:56:46.927Z,1062
2019-03-16T09:57:00.473Z,1040
2019-03-16T09:57:00.867Z,1025
2019-03-16T09:57:01.362Z,1029
2019-03-16T09:57:02.437Z,1054
2019-03-16T09:57:04.814Z,1068
2019-03-16T09:57:07.169Z,1085
2019-03-16T09:57:09.552Z,1098
2019-03-16T09:57:11.902Z,1106
2019-03-16T09:57:14.296Z,1115
2019-03-16T09:57:16.646Z,1111
2019-03-16T09:57:19.005Z,1098
2019-03-16T09:57:21.398Z,1097
2019-03-16T09:57:23.765Z,1103
2019-03-16T09:57:26.168Z,1113
2019-03-16T09:57:28.737Z,1128
2019-03-16T09:57:31.469Z,1139
2019-03-16T09:57:33.900Z,1140
2019-03-16T09:57:36.303Z,1135
2019-03-16T09:57:38.717Z,1130
2019-03-16T09:57:41.088Z,1084
2019-03-16T09:57:43.451Z,1098
2019-03-16T09:57:45.835Z,1083
2019-03-16T09:57:48.218Z,1051
2019-03-16T09:57:50.610Z,1050
2019-03-16T09:57:52.971Z,1040
2019-03-16T09:57:55.313Z,1031
2019-03-16T09:57:57.742Z,1017
2019-03-16T09:58:00.049Z,1012
2019-03-16T09:58:02.434Z,998
2019-03-16T09:58:04.835Z,990
2019-03-16T09:58:07.188Z,978
2019-03-16T09:58:09.543Z,956
2019-03-16T09:58:11.891Z,938
2019-03-16T09:58:14.279Z,924
2019-03-16T09:58:16.626Z,915
2019-03-16T09:58:30.604Z,911
2019-03-16T09:58:30.900Z,922
2019-03-16T09:58:31.333Z,937
2019-03-16T09:58:32.064Z,938
2019-03-16T09:58:34.401Z,936
2019-03-16T09:58:36.764Z,934
2019-03-16T09:58:39.114Z,935